createdAt,value
2022-12-20T00:01:33.780Z,100635.88
2022-12-20T00:04:04.454Z,100631.31
2022-12-20T00:06:31.530Z,100641.03
2022-12-20T00:09:01.192Z,100637.16
2022-12-20T00:11:29.092Z,100621.19
2022-12-20T00:13:56.645Z,100634.91
2022-12-20T00:16:26.448Z,100634.69
2022-12-20T00:18:59.703Z,100630.84
2022-12-20T00:21:27.447Z,100644.47
2022-12-20T00:23:58.027Z,100639.09
2022-12-20T00:26:34.236Z,100636.34
2022-12-20T00:29:03.842Z,100634.31
2022-12-20T00:31:38.736Z,100624.53
2022-12-20T00:34:08.294Z,100626.19
2022-12-20T00:36:44.044Z,100631.22
2022-12-20T00:39:13.213Z,100625.00
2022-12-20T00:41:42.631Z,100632.50
2022-12-20T00:44:10.185Z,100621.16
2022-12-20T00:46:40.093Z,100620.47
2022-12-20T00:49:10.664Z,100615.66
2022-12-20T00:51:38.450Z,100619.28
2022-12-20T00:54:09.472Z,100610.44
2022-12-20T00:56:38.474Z,100618.06
2022-12-20T00:59:05.799Z,100615.09
2022-12-20T01:01:35.753Z,100606.13
2022-12-20T01:04:05.017Z,100623.19
2022-12-20T01:06:32.755Z,100631.91
2022-12-20T01:09:01.120Z,100638.97
2022-12-20T01:11:34.541Z,100643.84
2022-12-20T01:14:12.411Z,100649.94
2022-12-20T01:16:54.672Z,100638.38
2022-12-20T01:19:24.880Z,100634.31
2022-12-20T01:21:51.681Z,100633.34
2022-12-20T01:24:20.146Z,100638.88
2022-12-20T01:26:47.335Z,100629.56
2022-12-20T01:29:14.294Z,100633.84
2022-12-20T01:31:42.486Z,100620.22
2022-12-20T01:34:10.538Z,100617.00
2022-12-20T01:36:41.092Z,100613.78
2022-12-20T01:39:13.953Z,100610.56
2022-12-20T01:41:43.037Z,100620.97
2022-12-20T01:44:18.589Z,100610.56
2022-12-20T01:46:47.027Z,100601.25
2022-12-20T01:49:15.122Z,100598.25
2022-12-20T01:51:54.207Z,100593.09
2022-12-20T01:54:26.271Z,100585.59
2022-12-20T01:56:59.846Z,100582.38
2022-12-20T01:59:27.850Z,100588.09
2022-12-20T02:01:59.628Z,100586.06
2022-12-20T02:04:26.842Z,100584.41
2022-12-20T02:06:53.577Z,100567.06
2022-12-20T02:09:20.398Z,100578.69
2022-12-20T02:11:54.566Z,100591.94
2022-12-20T02:14:59.526Z,100595.50
2022-12-20T02:17:36.829Z,100590.03
2022-12-20T02:20:29.246Z,100593.72
2022-12-20T02:23:59.090Z,100585.00
2022-12-20T02:26:51.219Z,100594.09
2022-12-20T02:29:58.520Z,100576.25
2022-12-20T02:32:29.065Z,100568.75
2022-12-20T02:34:56.724Z,100563.97
2022-12-20T02:37:23.367Z,100572.69
2022-12-20T02:39:52.563Z,100580.56
2022-12-20T02:42:22.504Z,100581.66
2022-12-20T02:45:16.313Z,100578.19
2022-12-20T02:47:46.671Z,100578.06
2022-12-20T02:50:17.095Z,100578.41
2022-12-20T02:52:44.661Z,100585.84
2022-12-20T02:55:11.617Z,100574.00
2022-12-20T02:57:57.883Z,100560.03
2022-12-20T03:29:10.668Z,100548.56
2022-12-20T03:31:38.971Z,100543.41
2022-12-20T03:34:06.769Z,100538.16
2022-12-20T03:36:35.529Z,100538.63
2022-12-20T03:39:05.334Z,100542.94
2022-12-20T03:41:36.427Z,100544.50
2022-12-20T03:44:08.040Z,100544.75
2022-12-20T03:46:39.642Z,100550.34
2022-12-20T03:49:12.129Z,100545.34
2022-12-20T03:51:49.133Z,100540.56
2022-12-20T03:54:28.149Z,100543.16
2022-12-20T03:57:06.825Z,100539.09
2022-12-20T03:59:36.591Z,100547.25
2022-12-20T04:02:05.543Z,100547.09
2022-12-20T04:28:02.529Z,100544.50
2022-12-20T04:30:30.097Z,100548.19
2022-12-20T04:32:57.825Z,100551.56
2022-12-20T04:35:26.400Z,100553.34
2022-12-20T04:37:53.481Z,100554.88
2022-12-20T04:40:20.468Z,100546.03
2022-12-20T06:34:41.363Z,100512.59
2022-12-20T06:37:15.678Z,100523.69
2022-12-20T06:39:49.455Z,100530.72
2022-12-20T06:42:28.030Z,100526.44
2022-12-20T06:45:00.830Z,100538.50
2022-12-20T06:47:41.774Z,100543.63
2022-12-20T06:50:12.565Z,100534.22
2022-12-20T06:52:47.893Z,100525.22
2022-12-20T06:55:16.131Z,100525.38
2022-12-20T06:57:51.562Z,100521.53
2022-12-20T07:00:53.090Z,100510.53
2022-12-20T07:10:16.042Z,100520.91
2022-12-20T07:12:47.807Z,100523.78
2022-12-20T07:15:16.709Z,100531.69
2022-12-20T07:17:44.103Z,100513.97
2022-12-20T07:20:14.197Z,100508.03
2022-12-20T07:22:43.128Z,100506.91
2022-12-20T07:25:11.356Z,100512.06
2022-12-20T07:27:41.068Z,100516.69
2022-12-20T07:51:51.771Z,100507.03
2022-12-20T07:54:42.954Z,100499.00
2022-12-20T07:57:14.324Z,100494.59
2022-12-20T07:59:46.186Z,100515.75
2022-12-20T08:02:16.631Z,100514.22
2022-12-20T08:04:44.104Z,100517.69
2022-12-20T08:07:11.308Z,100506.56
2022-12-20T08:09:40.467Z,100523.53
2022-12-20T08:12:08.922Z,100504.28
2022-12-20T08:14:35.625Z,100499.53
2022-12-20T08:17:02.521Z,100500.88
2022-12-20T08:19:32.594Z,100503.50
2022-12-20T08:21:59.759Z,100509.50
2022-12-20T08:24:26.385Z,100504.25
2022-12-20T08:26:53.135Z,100506.59
2022-12-20T08:29:19.856Z,100520.72
2022-12-20T08:31:50.273Z,100505.75
2022-12-20T08:34:18.046Z,100494.09
2022-12-20T08:36:44.867Z,100499.53
2022-12-20T08:39:11.841Z,100502.94
2022-12-20T08:41:39.293Z,100495.34
2022-12-20T08:44:06.908Z,100484.72
2022-12-20T08:46:33.897Z,100487.72
2022-12-20T08:49:01.242Z,100490.16
2022-12-20T08:51:29.415Z,100489.97
2022-12-20T08:53:57.092Z,100483.81
2022-12-20T08:56:24.414Z,100477.59
2022-12-20T08:58:51.187Z,100489.94
2022-12-20T09:01:19.604Z,100494.47
2022-12-20T09:03:47.235Z,100493.44
2022-12-20T09:06:18.906Z,100470.78
2022-12-20T09:08:47.578Z,100470.09
2022-12-20T09:11:33.793Z,100478.94
2022-12-20T09:14:02.949Z,100473.22
2022-12-20T09:26:29.879Z,100476.25
2022-12-20T09:29:28.230Z,100472.47
2022-12-20T09:31:56.704Z,100467.69
2022-12-20T09:34:23.477Z,100470.78
2022-12-20T09:36:51.466Z,100474.81
2022-12-20T09:39:18.100Z,100460.53
2022-12-20T09:41:45.108Z,100466.88
2022-12-20T09:44:18.867Z,100471.88
2022-12-20T09:46:49.132Z,100471.09
2022-12-20T09:49:17.938Z,100464.75
2022-12-20T09:52:05.269Z,100469.91
2022-12-20T09:54:58.615Z,100457.28
2022-12-20T09:57:43.264Z,100470.19
2022-12-20T10:00:20.186Z,100463.00
2022-12-20T10:03:09.925Z,100451.88
2022-12-20T10:05:41.847Z,100460.50
2022-12-20T10:08:17.448Z,100450.91
2022-12-20T10:10:57.197Z,100440.81
2022-12-20T10:13:50.625Z,100439.97
2022-12-20T10:16:28.795Z,100435.28
2022-12-20T10:19:21.740Z,100433.31
2022-12-20T10:21:57.681Z,100425.97
2022-12-20T10:24:28.305Z,100425.00
2022-12-20T10:26:55.706Z,100419.75
2022-12-20T10:29:22.655Z,100423.78
2022-12-20T10:32:00.282Z,100433.63
2022-12-20T10:34:31.701Z,100428.59
2022-12-20T10:37:15.921Z,100426.81
2022-12-20T10:39:48.603Z,100411.97
2022-12-20T10:42:26.457Z,100408.09
2022-12-20T10:44:54.476Z,100403.53
2022-12-20T10:47:35.413Z,100397.34
2022-12-20T10:50:20.765Z,100395.69
2022-12-20T10:53:04.854Z,100382.47
2022-12-20T10:55:39.698Z,100388.28
2022-12-20T10:58:16.248Z,100382.59
2022-12-20T11:00:43.672Z,100382.72
2022-12-20T11:03:21.377Z,100380.22
2022-12-20T11:06:03.581Z,100377.44
2022-12-20T11:08:49.872Z,100378.44
2022-12-20T11:11:24.838Z,100359.72
2022-12-20T11:13:52.427Z,100355.72
2022-12-20T11:16:36.307Z,100351.25
2022-12-20T11:19:23.866Z,100365.25
2022-12-20T11:22:16.743Z,100360.41
2022-12-20T11:25:07.832Z,100344.88
2022-12-20T11:27:47.891Z,100339.28
2022-12-20T11:30:33.970Z,100344.88
2022-12-20T11:33:00.716Z,100336.13
2022-12-20T11:35:33.543Z,100331.72
2022-12-20T11:38:21.779Z,100330.19
2022-12-20T11:40:53.405Z,100324.19
2022-12-20T11:43:23.486Z,100322.56
2022-12-20T11:46:22.423Z,100327.13
2022-12-20T11:48:55.273Z,100318.66
2022-12-20T11:51:26.925Z,100310.72
2022-12-20T11:54:04.560Z,100317.91
2022-12-20T11:56:43.826Z,100306.53
2022-12-20T11:59:36.382Z,100302.41
2022-12-20T12:02:13.564Z,100298.25
2022-12-20T12:04:57.077Z,100299.34
2022-12-20T12:07:29.241Z,100291.75
2022-12-20T12:10:02.335Z,100284.25
2022-12-20T12:12:44.089Z,100274.66
2022-12-20T12:15:38.939Z,100274.66
2022-12-20T12:18:21.722Z,100281.72
2022-12-20T12:20:48.919Z,100274.25
2022-12-20T12:23:21.900Z,100263.00
2022-12-20T12:25:48.904Z,100256.09
2022-12-20T12:28:18.529Z,100256.31
2022-12-20T12:30:56.130Z,100264.22
2022-12-20T12:33:37.870Z,100263.72
2022-12-20T12:36:41.053Z,100257.47
2022-12-20T12:39:41.624Z,100246.75
2022-12-20T12:42:39.457Z,100239.88
2022-12-20T12:45:16.150Z,100220.84
2022-12-20T12:47:53.061Z,100237.63
2022-12-20T12:50:32.693Z,100239.13
2022-12-20T12:53:19.987Z,100251.22
2022-12-20T12:55:49.006Z,100243.28
2022-12-20T12:58:16.142Z,100238.88
2022-12-20T13:00:57.880Z,100239.56
2022-12-20T13:04:04.954Z,100228.16
2022-12-20T13:06:34.002Z,100229.81
2022-12-20T13:09:00.963Z,100246.06
2022-12-20T13:11:46.626Z,100251.72
2022-12-20T13:14:25.783Z,100253.53
2022-12-20T13:17:13.122Z,100248.53
2022-12-20T13:19:52.749Z,100251.03
2022-12-20T13:22:27.143Z,100237.59
2022-12-20T13:25:04.103Z,100240.78
2022-12-20T13:27:39.465Z,100242.19
2022-12-20T13:30:12.109Z,100253.53
2022-12-20T13:33:00.105Z,100238.31
2022-12-20T13:38:43.489Z,100240.22
2022-12-20T16:17:14.025Z,100151.72
2022-12-20T16:19:41.334Z,100153.50
2022-12-20T16:22:16.775Z,100163.50
2022-12-20T16:24:43.953Z,100161.56
2022-12-20T16:27:10.668Z,100162.81
2022-12-20T16:29:37.411Z,100158.38
2022-12-20T16:32:08.061Z,100155.03
2022-12-20T16:34:34.800Z,100154.63
2022-12-20T16:37:01.623Z,100154.75
2022-12-20T16:39:28.512Z,100150.06
2022-12-20T16:41:55.092Z,100159.75
2022-12-20T16:44:22.956Z,100146.16
2022-12-20T16:46:49.695Z,100144.22
2022-12-20T16:49:20.380Z,100149.47
2022-12-20T16:51:48.644Z,100155.78
2022-12-20T16:54:19.669Z,100150.19
2022-12-20T16:56:48.245Z,100153.13
2022-12-20T16:59:21.537Z,100150.75
2022-12-20T17:01:52.309Z,100159.03
2022-12-20T17:04:20.208Z,100148.00
2022-12-20T17:06:47.019Z,100157.25
2022-12-20T17:09:14.053Z,100166.41
2022-12-20T17:11:40.618Z,100151.88
2022-12-20T17:14:12.296Z,100147.41
2022-12-20T17:16:40.360Z,100155.72
2022-12-20T17:19:07.325Z,100153.38
2022-12-20T17:24:28.499Z,100145.09
2022-12-20T17:26:55.410Z,100139.84
2022-12-20T17:29:22.081Z,100148.84
2022-12-20T17:31:49.102Z,100146.47
2022-12-20T17:34:21.011Z,100134.09
2022-12-20T17:36:49.437Z,100132.63
2022-12-20T17:39:16.435Z,100128.03
2022-12-20T17:41:44.065Z,100119.19
2022-12-20T17:44:26.604Z,100118.75
2022-12-20T17:46:54.350Z,100126.53
2022-12-20T17:49:21.404Z,100132.34
2022-12-20T17:51:48.030Z,100136.81
2022-12-20T17:54:18.170Z,100147.19
2022-12-20T17:56:45.152Z,100141.22
2022-12-20T17:59:13.004Z,100133.75
2022-12-20T18:01:40.578Z,100142.63
2022-12-20T18:04:10.001Z,100141.19
2022-12-20T18:06:38.340Z,100141.63
2022-12-20T18:09:08.106Z,100135.56
2022-12-20T18:11:34.918Z,100139.31
2022-12-20T18:14:03.592Z,100142.06
2022-12-20T18:16:32.694Z,100130.88
2022-12-20T18:18:59.332Z,100131.13
2022-12-20T18:21:26.864Z,100126.41
2022-12-20T18:23:54.096Z,100124.63
2022-12-20T18:26:27.465Z,100118.38
2022-12-20T18:28:56.441Z,100118.28
2022-12-20T18:31:25.542Z,100120.47
2022-12-20T18:33:57.812Z,100107.63
2022-12-20T18:36:27.332Z,100109.00
2022-12-20T18:38:54.150Z,100107.59
2022-12-20T18:41:26.618Z,100109.09
2022-12-20T18:43:56.089Z,100098.00
2022-12-20T18:46:23.375Z,100096.13
2022-12-20T18:48:51.409Z,100093.63
2022-12-20T18:51:20.331Z,100098.88
2022-12-20T18:53:48.096Z,100090.03
2022-12-20T18:56:17.752Z,100072.53
2022-12-20T18:58:44.904Z,100070.59
2022-12-20T19:01:23.081Z,100069.91
2022-12-20T19:03:50.913Z,100079.88
2022-12-20T19:06:17.918Z,100067.56
2022-12-20T19:08:44.550Z,100050.28
2022-12-20T19:11:19.000Z,100063.00
2022-12-20T19:13:45.966Z,100069.47
2022-12-20T19:16:15.724Z,100081.38
2022-12-20T19:18:43.901Z,100084.47
2022-12-20T19:21:19.480Z,100085.16
2022-12-20T19:23:48.856Z,100077.81
2022-12-20T19:26:17.043Z,100084.03
2022-12-20T19:28:43.867Z,100077.00
2022-12-20T19:31:20.994Z,100075.06
2022-12-20T19:33:48.623Z,100077.44
2022-12-20T19:36:17.664Z,100073.69
2022-12-20T19:38:51.082Z,100072.75
2022-12-20T19:41:18.927Z,100068.84
2022-12-20T19:43:47.427Z,100057.38
2022-12-20T19:46:14.911Z,100048.50
2022-12-20T19:48:41.722Z,100039.66
2022-12-20T19:51:11.836Z,100047.97
2022-12-20T19:53:44.341Z,100025.50
2022-12-20T19:56:15.184Z,100030.34
2022-12-20T19:58:42.172Z,100025.94
2022-12-20T20:01:09.849Z,100044.63
2022-12-20T20:03:36.954Z,100035.50
2022-12-20T20:06:04.974Z,100018.03
2022-12-20T20:08:33.017Z,100014.16
2022-12-20T20:11:03.934Z,100009.19
2022-12-20T20:13:33.964Z,100011.13
2022-12-20T20:16:01.853Z,100010.03
2022-12-20T20:18:28.992Z,100011.41
2022-12-20T20:20:56.189Z,100008.63
2022-12-20T20:23:23.167Z,100015.28
2022-12-20T20:25:56.796Z,100018.59
2022-12-20T20:28:32.341Z,100020.53
2022-12-20T20:31:01.894Z,100028.72
2022-12-20T20:33:30.374Z,100018.44
2022-12-20T20:35:59.525Z,100016.94
2022-12-20T20:38:27.822Z,100021.94
2022-12-20T20:40:54.568Z,100004.75
2022-12-20T20:43:21.512Z,99997.56
2022-12-20T20:45:48.638Z,99992.16
2022-12-20T20:48:15.867Z,99987.72
2022-12-20T20:50:45.896Z,99991.06
2022-12-20T20:53:13.321Z,99987.59
2022-12-20T20:55:39.942Z,99982.47
2022-12-20T20:58:06.772Z,99974.28
2022-12-20T21:00:35.127Z,99981.78
2022-12-20T21:03:02.011Z,99978.03
2022-12-20T21:06:21.917Z,99993.94
2022-12-20T21:08:15.611Z,99993.00
2022-12-20T21:10:42.928Z,99990.09
2022-12-20T21:13:09.702Z,99984.41
2022-12-20T21:15:36.427Z,99981.22
2022-12-20T21:18:03.090Z,99979.97
2022-12-20T21:20:29.732Z,99992.84
2022-12-20T21:22:57.356Z,99982.19
2022-12-20T21:25:24.037Z,99976.78
2022-12-20T21:27:50.675Z,99969.03
2022-12-20T21:30:17.618Z,99975.13
2022-12-20T21:32:44.264Z,99965.44
2022-12-20T21:35:11.157Z,99969.84
2022-12-20T21:37:37.707Z,99967.22
2022-12-20T21:40:05.137Z,99972.22
2022-12-20T21:42:32.027Z,99969.72
2022-12-20T21:44:58.661Z,99954.78
2022-12-20T21:47:25.404Z,99965.59
2022-12-20T21:49:52.111Z,99952.44
2022-12-20T21:52:18.797Z,99959.50
2022-12-20T21:54:45.484Z,99949.22
2022-12-20T21:57:12.203Z,99958.66
2022-12-20T21:59:39.017Z,99950.47
2022-12-20T22:02:06.065Z,99949.38
2022-12-20T22:04:33.260Z,99952.56
2022-12-20T22:06:59.930Z,99939.53
2022-12-20T22:09:26.660Z,99943.56
2022-12-20T22:11:53.307Z,99926.56
2022-12-20T22:14:19.951Z,99933.44
2022-12-20T22:16:46.807Z,99939.13
2022-12-20T22:19:14.776Z,99937.06
2022-12-20T22:21:41.773Z,99929.44
2022-12-20T22:24:08.799Z,99928.06
2022-12-20T22:26:35.961Z,99931.38
2022-12-20T22:29:05.200Z,99925.28
2022-12-20T22:31:31.951Z,99921.53
2022-12-20T22:33:59.180Z,99917.94
2022-12-20T22:36:26.660Z,99923.91
2022-12-20T22:38:57.323Z,99918.91
2022-12-20T22:41:32.567Z,99914.47
2022-12-20T22:43:59.726Z,99911.84
2022-12-20T22:46:29.119Z,99908.25
2022-12-20T22:48:56.654Z,99915.44
2022-12-20T22:51:25.841Z,99904.78
2022-12-20T22:53:52.958Z,99904.66
2022-12-20T22:56:21.730Z,99919.19
2022-12-20T22:58:49.725Z,99898.00
2022-12-20T23:01:18.374Z,99905.09
2022-12-20T23:03:45.593Z,99895.94
2022-12-20T23:06:15.330Z,99894.00
2022-12-20T23:08:42.143Z,99891.78
2022-12-20T23:11:39.952Z,99881.94
2022-12-20T23:14:30.436Z,99887.22
2022-12-20T23:16:57.167Z,99878.59
2022-12-20T23:19:23.856Z,99872.66
2022-12-20T23:22:09.025Z,99853.25
2022-12-20T23:24:35.943Z,99859.53
2022-12-20T23:27:02.595Z,99856.75
2022-12-20T23:29:30.014Z,99852.88
2022-12-20T23:31:56.931Z,99839.44
2022-12-20T23:34:24.470Z,99830.72
2022-12-20T23:36:51.096Z,99838.91
2022-12-20T23:39:17.800Z,99824.22
2022-12-20T23:41:44.366Z,99829.03
2022-12-20T23:44:11.000Z,99837.22
2022-12-20T23:46:38.250Z,99847.22
2022-12-20T23:49:04.945Z,99830.84
2022-12-20T23:51:31.655Z,99818.09
2022-12-20T23:53:58.297Z,99801.34
2022-12-20T23:56:25.281Z,99796.81
2022-12-20T23:58:55.520Z,99809.22
